Time;durP1;ratioP1;P1;durP2;ratioP2;P2;SDS_P1;SDS_P2;PMS_P1;PMS_P2;Temp;Humidity;BMP_temperature;BMP_pressure;BME280_temperature;BME280_humidity;BME280_pressure;Samples;Min_cycle;Max_cycle;Signal;HPM_P1;HPM_P2
2022/01/22 00:00:46;;;;;;;29.23;3.50;;;;;;;;;;5024020;28;20091;-87
2022/01/22 00:03:12;;;;;;;25.63;3.85;;;;;;;;;;5028685;28;20095;-85
2022/01/22 00:05:38;;;;;;;14.60;2.63;;;;;;;;;;5006763;28;20033;-84
2022/01/22 00:08:04;;;;;;;33.95;3.40;;;;;;;;;;5025342;28;20520;-85
2022/01/22 00:10:32;;;;;;;36.17;3.75;;;;;;;;;;5028679;28;20407;-86
2022/01/22 00:15:31;;;;;;;27.80;4.07;;;;;;;;;;5041947;28;20040;-87
2022/01/22 00:17:58;;;;;;;28.38;3.33;;;;;;;;;;5041339;28;20077;-87
2022/01/22 00:20:25;;;;;;;23.10;3.28;;;;;;;;;;5012410;28;20041;-87
2022/01/22 00:22:52;;;;;;;26.42;3.63;;;;;;;;;;5013441;28;20057;-86
2022/01/22 00:25:19;;;;;;;31.98;4.22;;;;;;;;;;5024739;28;20041;-87
2022/01/22 00:27:45;;;;;;;38.65;4.45;;;;;;;;;;5018740;28;20049;-85
2022/01/22 00:30:16;;;;;;;35.08;5.15;;;;;;;;;;5012893;28;20052;-87
2022/01/22 00:32:46;;;;;;;25.70;5.20;;;;;;;;;;5022776;28;20399;-86
2022/01/22 00:35:12;;;;;;;21.58;3.47;;;;;;;;;;5042561;28;20611;-85
2022/01/22 00:37:39;;;;;;;23.13;4.47;;;;;;;;;;5040211;28;20029;-87
2022/01/22 00:40:06;;;;;;;27.23;3.67;;;;;;;;;;5034538;28;20040;-86
2022/01/22 00:42:34;;;;;;;19.70;2.50;;;;;;;;;;5034670;28;20084;-86
2022/01/22 00:45:00;;;;;;;13.15;2.13;;;;;;;;;;5026719;28;20060;-86
2022/01/22 00:47:26;;;;;;;14.32;2.25;;;;;;;;;;5044430;28;20128;-86
2022/01/22 00:49:52;;;;;;;16.48;2.38;;;;;;;;;;5019059;28;20057;-85
2022/01/22 00:52:18;;;;;;;15.88;2.50;;;;;;;;;;5021880;28;20102;-86
2022/01/22 00:54:44;;;;;;;15.75;2.55;;;;;;;;;;5037218;28;20029;-86
2022/01/22 00:57:10;;;;;;;26.95;3.50;;;;;;;;;;5013131;28;20492;-86
2022/01/22 00:59:36;;;;;;;25.98;3.55;;;;;;;;;;5022085;28;20124;-86
2022/01/22 01:02:04;;;;;;;36.35;3.65;;;;;;;;;;5044938;28;20094;-86
2022/01/22 01:04:35;;;;;;;30.52;3.33;;;;;;;;;;5018561;28;20045;-86
2022/01/22 01:07:01;;;;;;;20.08;2.20;;;;;;;;;;5028033;28;20037;-86
2022/01/22 01:09:27;;;;;;;20.25;3.00;;;;;;;;;;5038925;28;20405;-86
2022/01/22 01:11:58;;;;;;;20.27;2.83;;;;;;;;;;5011062;28;20060;-86
2022/01/22 01:14:32;;;;;;;18.50;3.08;;;;;;;;;;5039814;28;20049;-87
2022/01/22 01:36:44;;;;;;;29.17;2.85;;;;;;;;;;5038326;28;20040;-86
2022/01/22 01:39:14;;;;;;;17.73;2.42;;;;;;;;;;5005947;28;20481;-86
2022/01/22 01:44:10;;;;;;;22.92;2.67;;;;;;;;;;5013405;28;20065;-85
2022/01/22 01:46:36;;;;;;;22.83;3.10;;;;;;;;;;5027847;28;20065;-85
2022/01/22 01:49:03;;;;;;;29.50;3.25;;;;;;;;;;5014918;28;20048;-86
2022/01/22 01:51:33;;;;;;;23.00;2.63;;;;;;;;;;5031250;28;20042;-86
2022/01/22 01:54:11;;;;;;;28.80;3.67;;;;;;;;;;5017402;28;20049;-86
2022/01/22 01:59:21;;;;;;;12.93;1.92;;;;;;;;;;5032717;28;20943;-86
2022/01/22 02:01:48;;;;;;;16.88;2.03;;;;;;;;;;5033597;28;20073;-86
2022/01/22 02:04:14;;;;;;;12.00;1.63;;;;;;;;;;5031786;28;20038;-86
2022/01/22 02:06:41;;;;;;;5.72;0.90;;;;;;;;;;5013578;28;20049;-86
2022/01/22 02:09:09;;;;;;;7.20;1.33;;;;;;;;;;5037928;28;20048;-86
2022/01/22 02:11:36;;;;;;;12.63;1.88;;;;;;;;;;5029512;28;20128;-87
2022/01/22 02:25:04;;;;;;;17.48;2.33;;;;;;;;;;5034514;28;20083;-86
2022/01/22 02:27:32;;;;;;;22.30;2.40;;;;;;;;;;5031231;28;20048;-85
2022/01/22 02:29:58;;;;;;;20.80;2.88;;;;;;;;;;5055905;28;20154;-84
2022/01/22 02:35:32;;;;;;;20.83;2.17;;;;;;;;;;5005995;28;20046;-84
2022/01/22 02:38:04;;;;;;;20.10;3.75;;;;;;;;;;5039419;28;20064;-85
2022/01/22 02:40:36;;;;;;;20.33;2.13;;;;;;;;;;5042178;28;20048;-84
2022/01/22 02:43:02;;;;;;;15.93;1.58;;;;;;;;;;5044086;28;20045;-84
2022/01/22 02:45:31;;;;;;;17.92;1.38;;;;;;;;;;5046734;28;20408;-84
2022/01/22 02:47:58;;;;;;;19.13;1.60;;;;;;;;;;5006798;28;20084;-84
2022/01/22 02:50:24;;;;;;;12.00;2.28;;;;;;;;;;5019742;28;20048;-84
2022/01/22 02:52:51;;;;;;;13.85;1.65;;;;;;;;;;4986536;28;20038;-84
2022/01/22 02:55:17;;;;;;;14.10;1.45;;;;;;;;;;5019231;28;20393;-83
2022/01/22 02:57:45;;;;;;;18.50;1.70;;;;;;;;;;5016977;28;20052;-84
2022/01/22 03:00:13;;;;;;;12.63;1.42;;;;;;;;;;5016310;28;20121;-84
2022/01/22 03:02:39;;;;;;;18.40;1.83;;;;;;;;;;5015796;28;20038;-84
2022/01/22 03:05:05;;;;;;;15.52;1.60;;;;;;;;;;5005883;28;20053;-85
2022/01/22 03:07:31;;;;;;;6.43;1.23;;;;;;;;;;5007212;28;22039;-85
2022/01/22 03:10:01;;;;;;;19.85;2.35;;;;;;;;;;5017706;28;20042;-84
2022/01/22 03:15:31;;;;;;;24.15;3.42;;;;;;;;;;5000194;28;20097;-84
2022/01/22 03:17:58;;;;;;;24.13;2.67;;;;;;;;;;5005653;28;20045;-84
2022/01/22 03:21:00;;;;;;;11.40;2.03;;;;;;;;;;5008081;28;20374;-84
2022/01/22 03:29:01;;;;;;;10.27;1.75;;;;;;;;;;5026573;28;20053;-84
2022/01/22 03:31:27;;;;;;;9.60;1.30;;;;;;;;;;5016894;28;20050;-85
2022/01/22 03:34:12;;;;;;;15.15;1.70;;;;;;;;;;5000561;28;20424;-85
2022/01/22 03:36:39;;;;;;;12.23;1.58;;;;;;;;;;4991911;28;20123;-84
2022/01/22 03:39:07;;;;;;;13.00;1.70;;;;;;;;;;5012373;28;20050;-84
2022/01/22 03:41:33;;;;;;;26.38;2.88;;;;;;;;;;5024509;28;20543;-84
2022/01/22 03:44:00;;;;;;;13.55;2.47;;;;;;;;;;5014834;28;20125;-84
2022/01/22 03:46:30;;;;;;;19.13;2.55;;;;;;;;;;5014074;28;20059;-84
2022/01/22 03:48:56;;;;;;;16.63;2.30;;;;;;;;;;5047928;28;20099;-84
2022/01/22 03:51:22;;;;;;;17.45;1.98;;;;;;;;;;5046551;28;20048;-84
2022/01/22 03:53:48;;;;;;;16.00;2.40;;;;;;;;;;5048662;28;20100;-84
2022/01/22 03:56:14;;;;;;;16.35;2.40;;;;;;;;;;5046881;28;20581;-84
2022/01/22 03:58:41;;;;;;;14.20;1.70;;;;;;;;;;5047733;28;20095;-84
2022/01/22 04:01:44;;;;;;;11.70;1.42;;;;;;;;;;5031806;28;20063;-85
2022/01/22 04:04:07;;;;;;;15.75;2.03;;;;;;;;;;5018704;28;20072;-84
2022/01/22 04:09:11;;;;;;;14.70;2.33;;;;;;;;;;5043683;28;20033;-84
2022/01/22 04:11:42;;;;;;;12.55;2.22;;;;;;;;;;5044087;28;20500;-85
2022/01/22 04:14:21;;;;;;;12.07;2.10;;;;;;;;;;5030320;28;20052;-84
2022/01/22 04:17:20;;;;;;;9.27;2.30;;;;;;;;;;5027116;28;20080;-85
2022/01/22 04:25:23;;;;;;;13.70;3.85;;;;;;;;;;5064046;28;20044;-84
2022/01/22 04:27:53;;;;;;;10.95;3.72;;;;;;;;;;5029973;28;20079;-85
2022/01/22 04:30:19;;;;;;;14.95;3.08;;;;;;;;;;5033923;28;20423;-85
2022/01/22 04:32:45;;;;;;;9.88;2.97;;;;;;;;;;5026753;28;20049;-85
2022/01/22 04:35:11;;;;;;;13.75;2.58;;;;;;;;;;5023585;28;20061;-86
2022/01/22 04:37:38;;;;;;;15.13;2.50;;;;;;;;;;5038083;28;20099;-85
2022/01/22 04:40:05;;;;;;;18.83;3.20;;;;;;;;;;5006369;28;20084;-85
2022/01/22 04:42:39;;;;;;;22.05;4.05;;;;;;;;;;5032790;28;20034;-86
2022/01/22 04:45:14;;;;;;;;;;;;;;;;;;5030647;28;20045;-85
2022/01/22 04:55:39;;;;;;;12.43;1.88;;;;;;;;;;5048521;28;20500;-85
2022/01/22 04:58:05;;;;;;;9.10;1.70;;;;;;;;;;5040777;28;20053;-85
2022/01/22 05:00:33;;;;;;;13.38;1.90;;;;;;;;;;5038546;28;20056;-84
2022/01/22 05:02:59;;;;;;;15.15;1.80;;;;;;;;;;5043340;28;20506;-85
2022/01/22 05:05:25;;;;;;;11.18;2.60;;;;;;;;;;5045633;28;20044;-85
2022/01/22 05:07:52;;;;;;;20.55;2.45;;;;;;;;;;5045305;28;20041;-85
2022/01/22 05:10:18;;;;;;;7.88;1.00;;;;;;;;;;5037160;28;20171;-85
2022/01/22 05:12:45;;;;;;;20.63;1.75;;;;;;;;;;5044712;28;20044;-84
2022/01/22 05:15:11;;;;;;;17.92;3.83;;;;;;;;;;5061321;28;20192;-84
2022/01/22 05:17:40;;;;;;;20.33;4.03;;;;;;;;;;5057377;28;20102;-85
2022/01/22 05:20:16;;;;;;;21.92;3.30;;;;;;;;;;5043226;28;20123;-85
2022/01/22 05:23:08;;;;;;;15.68;1.90;;;;;;;;;;5044313;28;20048;-85
2022/01/22 05:25:41;;;;;;;22.13;3.45;;;;;;;;;;5029936;28;20095;-84
2022/01/22 05:31:38;;;;;;;31.15;2.40;;;;;;;;;;5045801;28;20381;-84
2022/01/22 05:39:05;;;;;;;15.18;1.65;;;;;;;;;;5030637;28;20045;-85
2022/01/22 05:41:32;;;;;;;19.55;2.63;;;;;;;;;;5039745;28;20104;-84
2022/01/22 05:43:58;;;;;;;19.58;2.42;;;;;;;;;;5028925;28;20148;-84
2022/01/22 05:46:24;;;;;;;23.42;1.83;;;;;;;;;;5026282;28;20041;-84
2022/01/22 05:48:50;;;;;;;12.30;1.38;;;;;;;;;;5046303;28;20143;-85
2022/01/22 05:51:19;;;;;;;19.05;2.35;;;;;;;;;;5044622;28;20284;-85
2022/01/22 05:54:12;;;;;;;17.92;2.00;;;;;;;;;;5045741;28;20043;-83
2022/01/22 06:02:00;;;;;;;10.80;1.50;;;;;;;;;;5038011;28;20134;-83
2022/01/22 06:04:27;;;;;;;16.45;1.50;;;;;;;;;;5020756;28;20486;-84
2022/01/22 06:06:53;;;;;;;18.10;2.65;;;;;;;;;;5026711;28;20417;-84
2022/01/22 06:09:19;;;;;;;19.10;1.85;;;;;;;;;;5044117;28;20074;-82
2022/01/22 06:11:56;;;;;;;32.20;2.33;;;;;;;;;;5026327;28;20094;-84
2022/01/22 06:14:22;;;;;;;22.02;2.50;;;;;;;;;;5026084;28;20563;-84
2022/01/22 06:16:48;;;;;;;17.05;2.65;;;;;;;;;;5042432;28;20049;-84
2022/01/22 06:19:14;;;;;;;24.05;3.17;;;;;;;;;;5042870;28;20041;-83
2022/01/22 06:21:41;;;;;;;21.05;2.60;;;;;;;;;;5042676;28;20036;-84
2022/01/22 06:24:07;;;;;;;19.60;2.47;;;;;;;;;;5044678;28;20036;-84
2022/01/22 06:26:35;;;;;;;21.27;3.33;;;;;;;;;;5024228;28;20139;-84
2022/01/22 06:29:01;;;;;;;15.65;2.42;;;;;;;;;;5026950;28;20056;-84
2022/01/22 06:31:31;;;;;;;29.55;2.78;;;;;;;;;;5009455;28;20045;-85
2022/01/22 06:33:58;;;;;;;28.60;2.63;;;;;;;;;;5044166;28;20874;-85
2022/01/22 06:36:25;;;;;;;35.28;3.13;;;;;;;;;;5009109;28;20899;-85
2022/01/22 06:38:57;;;;;;;23.90;3.08;;;;;;;;;;5025388;28;20101;-85
2022/01/22 06:44:07;;;;;;;31.08;2.65;;;;;;;;;;5042320;28;20446;-86
2022/01/22 06:46:34;;;;;;;28.33;2.65;;;;;;;;;;5044742;28;20061;-85
2022/01/22 06:49:00;;;;;;;21.60;2.63;;;;;;;;;;5042002;28;20602;-85
2022/01/22 06:51:27;;;;;;;23.52;2.92;;;;;;;;;;5044531;28;21046;-86
2022/01/22 06:53:54;;;;;;;22.08;2.85;;;;;;;;;;5007831;28;20084;-85
2022/01/22 06:56:21;;;;;;;23.50;3.53;;;;;;;;;;5009441;28;20139;-86
2022/01/22 06:58:48;;;;;;;8.18;1.73;;;;;;;;;;5024447;28;20041;-84
2022/01/22 07:01:14;;;;;;;13.23;2.00;;;;;;;;;;5053339;28;20049;-86
2022/01/22 07:03:40;;;;;;;6.78;1.15;;;;;;;;;;5025965;28;20049;-84
2022/01/22 07:06:06;;;;;;;7.35;1.23;;;;;;;;;;5044672;28;20044;-85
2022/01/22 07:08:33;;;;;;;18.13;1.92;;;;;;;;;;5035374;28;20041;-85
2022/01/22 07:10:59;;;;;;;9.63;1.70;;;;;;;;;;5038387;28;20049;-85
2022/01/22 07:13:25;;;;;;;8.93;1.80;;;;;;;;;;5050348;28;20053;-84
2022/01/22 07:15:51;;;;;;;8.02;1.52;;;;;;;;;;5021152;28;20096;-85
2022/01/22 07:18:18;;;;;;;10.77;1.13;;;;;;;;;;5060945;28;20048;-85
2022/01/22 07:20:45;;;;;;;6.57;1.30;;;;;;;;;;5041423;28;20037;-86
2022/01/22 07:25:59;;;;;;;9.65;1.85;;;;;;;;;;5023649;28;20069;-86
2022/01/22 07:28:26;;;;;;;11.20;2.00;;;;;;;;;;5044235;28;20176;-85
2022/01/22 07:30:53;;;;;;;19.92;2.30;;;;;;;;;;5010542;28;20092;-86
2022/01/22 07:33:28;;;;;;;12.40;2.08;;;;;;;;;;5004266;28;20972;-86
2022/01/22 07:36:12;;;;;;;22.75;1.92;;;;;;;;;;5013421;28;20046;-86
2022/01/22 07:38:39;;;;;;;15.18;2.10;;;;;;;;;;5038617;28;20049;-85
2022/01/22 07:41:09;;;;;;;8.50;2.00;;;;;;;;;;5064976;28;20048;-85
2022/01/22 07:43:43;;;;;;;13.20;2.03;;;;;;;;;;5057872;28;20080;-86
2022/01/22 07:46:13;;;;;;;15.88;1.80;;;;;;;;;;5061492;28;20087;-85
2022/01/22 07:48:39;;;;;;;9.82;2.13;;;;;;;;;;5059052;28;20095;-86
2022/01/22 07:51:05;;;;;;;23.75;3.13;;;;;;;;;;5042901;28;20045;-85
2022/01/22 07:53:32;;;;;;;10.07;1.95;;;;;;;;;;5011617;28;20053;-85
2022/01/22 07:55:58;;;;;;;13.35;1.90;;;;;;;;;;5026462;28;20532;-85
2022/01/22 07:58:46;;;;;;;6.85;1.83;;;;;;;;;;5037486;28;20050;-85
2022/01/22 08:01:31;;;;;;;9.18;1.88;;;;;;;;;;5017824;28;20133;-86
2022/01/22 08:03:57;;;;;;;6.55;1.70;;;;;;;;;;5028860;28;20036;-86
2022/01/22 08:06:24;;;;;;;11.57;1.80;;;;;;;;;;5004434;28;20045;-86
2022/01/22 08:08:50;;;;;;;10.20;2.22;;;;;;;;;;5033336;28;21626;-86
2022/01/22 08:11:16;;;;;;;15.02;2.40;;;;;;;;;;5023367;28;20128;-86
2022/01/22 08:13:42;;;;;;;5.57;1.85;;;;;;;;;;5012323;28;20081;-87
2022/01/22 08:16:08;;;;;;;14.05;1.90;;;;;;;;;;4993115;28;20099;-85
2022/01/22 08:18:34;;;;;;;11.73;1.73;;;;;;;;;;5011845;28;20084;-85
2022/01/22 08:21:00;;;;;;;10.55;2.38;;;;;;;;;;4991132;28;20037;-85
2022/01/22 08:23:27;;;;;;;10.60;1.75;;;;;;;;;;5009599;28;20556;-86
2022/01/22 08:25:53;;;;;;;4.80;1.00;;;;;;;;;;5023173;28;20594;-86
2022/01/22 08:31:16;;;;;;;;;;;;;;;;;;5012430;28;20064;-86
2022/01/22 08:36:27;;;;;;;24.83;2.25;;;;;;;;;;5016623;28;20029;-85
2022/01/22 08:39:04;;;;;;;18.83;1.70;;;;;;;;;;5005686;28;20042;-86
2022/01/22 08:41:30;;;;;;;17.10;2.30;;;;;;;;;;5004453;28;20067;-85
2022/01/22 08:43:58;;;;;;;13.52;1.35;;;;;;;;;;5027389;28;20061;-85
2022/01/22 08:46:24;;;;;;;28.45;2.55;;;;;;;;;;5025859;28;20758;-85
2022/01/22 08:48:50;;;;;;;16.67;2.00;;;;;;;;;;5011296;28;20108;-85
2022/01/22 08:51:17;;;;;;;12.05;1.48;;;;;;;;;;5024490;28;20129;-85
2022/01/22 08:53:43;;;;;;;11.57;1.33;;;;;;;;;;5026718;28;20185;-85
2022/01/22 08:56:09;;;;;;;19.52;1.75;;;;;;;;;;5025281;28;20049;-85
2022/01/22 08:58:41;;;;;;;16.70;1.80;;;;;;;;;;5025417;28;20067;-86
2022/01/22 09:01:08;;;;;;;13.55;1.42;;;;;;;;;;5014576;28;21645;-86
2022/01/22 09:03:34;;;;;;;20.50;3.30;;;;;;;;;;5012809;28;20058;-85
2022/01/22 09:06:03;;;;;;;10.85;1.98;;;;;;;;;;5014598;28;20414;-85
2022/01/22 09:08:29;;;;;;;10.85;2.10;;;;;;;;;;5027764;28;20446;-84
2022/01/22 09:10:55;;;;;;;17.30;1.65;;;;;;;;;;5036285;28;20048;-84
2022/01/22 09:13:23;;;;;;;10.95;1.65;;;;;;;;;;5023709;28;20048;-85
2022/01/22 09:15:49;;;;;;;13.93;2.30;;;;;;;;;;5012561;28;20423;-85
2022/01/22 09:18:16;;;;;;;21.42;2.22;;;;;;;;;;5017278;28;20040;-84
2022/01/22 09:20:55;;;;;;;26.70;2.10;;;;;;;;;;4996938;28;20496;-85
2022/01/22 09:23:21;;;;;;;20.60;2.05;;;;;;;;;;5026263;28;20041;-85
2022/01/22 09:25:47;;;;;;;10.43;1.35;;;;;;;;;;5030307;28;20512;-85
2022/01/22 09:28:14;;;;;;;9.88;1.48;;;;;;;;;;4996733;28;20045;-85
2022/01/22 09:30:41;;;;;;;12.60;1.20;;;;;;;;;;5031520;28;20038;-86
2022/01/22 09:33:07;;;;;;;8.68;1.50;;;;;;;;;;5034650;28;20073;-85
2022/01/22 09:35:34;;;;;;;9.65;1.20;;;;;;;;;;5032229;28;20041;-86
2022/01/22 09:38:00;;;;;;;11.27;1.85;;;;;;;;;;4995345;28;20580;-86
2022/01/22 09:40:27;;;;;;;8.27;1.25;;;;;;;;;;5015757;28;20045;-88
2022/01/22 09:42:54;;;;;;;7.30;1.10;;;;;;;;;;5014073;28;20046;-88
2022/01/22 09:45:21;;;;;;;9.02;0.90;;;;;;;;;;5039744;28;20048;-86
2022/01/22 09:47:48;;;;;;;6.30;0.82;;;;;;;;;;5020901;28;20121;-86
2022/01/22 09:50:16;;;;;;;9.82;1.58;;;;;;;;;;5049434;28;20045;-85
2022/01/22 09:52:44;;;;;;;5.90;1.10;;;;;;;;;;5025812;28;20556;-87
2022/01/22 09:55:10;;;;;;;15.60;1.40;;;;;;;;;;5029381;28;20091;-87
2022/01/22 09:57:37;;;;;;;8.75;1.20;;;;;;;;;;5036094;28;20041;-86
2022/01/22 10:00:06;;;;;;;6.10;1.00;;;;;;;;;;5038036;28;20445;-85
2022/01/22 10:02:39;;;;;;;5.43;0.68;;;;;;;;;;5047315;28;20123;-84
2022/01/22 10:05:05;;;;;;;3.67;0.50;;;;;;;;;;5045237;28;20428;-86
2022/01/22 10:07:31;;;;;;;4.10;0.57;;;;;;;;;;5039637;28;20073;-86
2022/01/22 10:09:58;;;;;;;6.13;0.68;;;;;;;;;;5011060;28;20553;-85
2022/01/22 10:12:26;;;;;;;3.25;0.52;;;;;;;;;;5028681;28;20396;-87
2022/01/22 10:15:04;;;;;;;5.60;0.90;;;;;;;;;;5043375;28;20057;-85
2022/01/22 10:17:57;;;;;;;6.47;1.40;;;;;;;;;;5031762;28;20037;-88
2022/01/22 10:20:23;;;;;;;5.28;0.77;;;;;;;;;;5037447;28;20115;-87
2022/01/22 10:22:51;;;;;;;5.38;0.77;;;;;;;;;;5042882;28;20063;-87
2022/01/22 10:25:20;;;;;;;5.03;0.70;;;;;;;;;;5010807;28;20049;-85
2022/01/22 10:27:55;;;;;;;4.05;0.73;;;;;;;;;;5026153;28;20048;-86
2022/01/22 10:30:21;;;;;;;3.58;0.80;;;;;;;;;;5047023;28;20785;-85
2022/01/22 10:33:11;;;;;;;3.60;0.73;;;;;;;;;;5045669;28;20147;-86
2022/01/22 10:35:37;;;;;;;3.65;0.70;;;;;;;;;;5047001;28;20048;-86
2022/01/22 10:38:04;;;;;;;4.43;0.45;;;;;;;;;;5009578;28;20072;-86
2022/01/22 10:40:30;;;;;;;2.65;0.80;;;;;;;;;;4991782;28;20037;-85
2022/01/22 10:43:16;;;;;;;3.08;0.80;;;;;;;;;;5027040;28;20060;-87
2022/01/22 10:46:07;;;;;;;10.48;1.17;;;;;;;;;;5008395;28;20060;-86
2022/01/22 10:48:34;;;;;;;6.97;0.80;;;;;;;;;;4993462;28;20108;-86
2022/01/22 10:51:05;;;;;;;10.93;1.17;;;;;;;;;;5005791;28;20064;-86
2022/01/22 10:53:35;;;;;;;11.00;1.10;;;;;;;;;;5025950;28;20052;-85
2022/01/22 10:56:03;;;;;;;6.40;1.40;;;;;;;;;;5027158;28;20046;-85
2022/01/22 10:58:30;;;;;;;8.75;1.30;;;;;;;;;;5024678;28;20077;-86
2022/01/22 11:01:00;;;;;;;7.93;1.30;;;;;;;;;;5024938;28;20056;-84
2022/01/22 11:03:28;;;;;;;4.72;1.40;;;;;;;;;;5007453;28;20184;-84
2022/01/22 11:06:09;;;;;;;7.25;1.35;;;;;;;;;;5026413;28;20084;-85
2022/01/22 11:08:35;;;;;;;10.35;1.00;;;;;;;;;;5001000;28;20132;-85
2022/01/22 11:11:02;;;;;;;12.00;1.05;;;;;;;;;;5005551;28;20037;-85
2022/01/22 11:13:40;;;;;;;6.78;1.02;;;;;;;;;;5008896;28;20108;-83
2022/01/22 11:16:07;;;;;;;8.30;1.00;;;;;;;;;;5025808;28;20128;-85
2022/01/22 11:18:33;;;;;;;6.32;0.90;;;;;;;;;;5021335;28;20506;-85
2022/01/22 11:21:00;;;;;;;7.25;1.40;;;;;;;;;;5021341;28;20425;-84
2022/01/22 11:23:33;;;;;;;4.75;1.08;;;;;;;;;;5010126;28;20053;-86
2022/01/22 11:25:59;;;;;;;6.65;1.42;;;;;;;;;;5024380;28;20065;-86
2022/01/22 11:28:32;;;;;;;9.00;1.48;;;;;;;;;;5008599;28;20108;-86
2022/01/22 11:30:59;;;;;;;7.05;1.60;;;;;;;;;;5023638;28;20060;-86
2022/01/22 11:33:25;;;;;;;16.35;2.97;;;;;;;;;;5010050;28;20120;-84
2022/01/22 11:36:16;;;;;;;13.25;1.60;;;;;;;;;;5006710;28;20723;-85
2022/01/22 11:38:53;;;;;;;8.05;1.10;;;;;;;;;;5010361;28;20116;-85
2022/01/22 11:41:21;;;;;;;11.63;1.60;;;;;;;;;;5010972;28;20037;-85
2022/01/22 11:44:00;;;;;;;6.63;1.25;;;;;;;;;;5028683;28;20057;-85
2022/01/22 11:46:29;;;;;;;10.82;1.60;;;;;;;;;;5010300;28;20046;-86
2022/01/22 11:49:14;;;;;;;7.57;1.70;;;;;;;;;;5024486;28;20179;-87
2022/01/22 11:51:47;;;;;;;11.50;1.95;;;;;;;;;;5008849;28;20073;-87
2022/01/22 11:54:14;;;;;;;12.45;1.90;;;;;;;;;;5031747;28;20080;-87
2022/01/22 11:56:42;;;;;;;7.32;1.30;;;;;;;;;;5023134;28;20046;-86
2022/01/22 11:59:17;;;;;;;8.48;1.88;;;;;;;;;;5032584;28;20056;-87
2022/01/22 12:04:16;;;;;;;8.95;1.65;;;;;;;;;;5013032;28;20045;-87
2022/01/22 12:07:01;;;;;;;12.60;2.15;;;;;;;;;;5010757;28;20501;-87
2022/01/22 12:09:32;;;;;;;7.75;1.48;;;;;;;;;;5013012;28;20050;-86
2022/01/22 12:14:47;;;;;;;5.57;1.40;;;;;;;;;;5012871;28;20049;-86
2022/01/22 12:17:24;;;;;;;12.10;2.30;;;;;;;;;;5012749;28;20045;-87
2022/01/22 12:22:34;;;;;;;15.50;1.73;;;;;;;;;;5027701;28;20103;-87
2022/01/22 12:25:20;;;;;;;6.78;1.50;;;;;;;;;;5028164;28;20528;-87
2022/01/22 12:27:48;;;;;;;8.88;2.38;;;;;;;;;;5029188;28;20061;-87
2022/01/22 12:30:14;;;;;;;14.77;2.00;;;;;;;;;;5024967;28;20047;-86
2022/01/22 12:32:48;;;;;;;13.02;2.05;;;;;;;;;;5029155;28;20052;-85
2022/01/22 12:35:18;;;;;;;7.27;1.73;;;;;;;;;;5027375;28;20458;-85
2022/01/22 12:37:49;;;;;;;9.18;1.70;;;;;;;;;;5006023;28;20100;-85
2022/01/22 12:40:27;;;;;;;7.18;1.50;;;;;;;;;;5025491;28;20084;-85
2022/01/22 12:43:00;;;;;;;9.70;1.60;;;;;;;;;;5019082;28;20055;-86
2022/01/22 12:45:26;;;;;;;18.08;2.08;;;;;;;;;;5011992;28;20038;-86
2022/01/22 12:47:54;;;;;;;9.52;2.30;;;;;;;;;;5019776;28;20052;-87
2022/01/22 12:50:25;;;;;;;10.10;2.17;;;;;;;;;;5035196;28;20041;-86
2022/01/22 12:52:52;;;;;;;9.88;2.63;;;;;;;;;;5033489;28;20409;-85
2022/01/22 12:55:20;;;;;;;11.00;2.53;;;;;;;;;;5028742;28;20038;-87
2022/01/22 12:57:46;;;;;;;16.50;2.85;;;;;;;;;;5034331;28;20045;-85
2022/01/22 13:00:18;;;;;;;16.55;2.92;;;;;;;;;;5020644;28;20033;-86
2022/01/22 13:02:50;;;;;;;9.93;3.08;;;;;;;;;;5029732;28;20037;-86
2022/01/22 13:05:18;;;;;;;13.30;3.08;;;;;;;;;;5004726;28;20042;-87
2022/01/22 13:07:53;;;;;;;17.15;3.08;;;;;;;;;;5028205;28;20029;-88
2022/01/22 13:10:27;;;;;;;16.60;3.70;;;;;;;;;;5014645;28;20653;-84
2022/01/22 13:12:56;;;;;;;17.52;3.90;;;;;;;;;;5046079;28;20481;-87
2022/01/22 13:15:30;;;;;;;19.92;3.42;;;;;;;;;;5006846;28;20553;-87
2022/01/22 13:18:00;;;;;;;16.83;3.28;;;;;;;;;;5024855;28;20053;-87
2022/01/22 13:20:28;;;;;;;16.52;3.92;;;;;;;;;;5029671;28;20045;-87
2022/01/22 13:22:56;;;;;;;18.83;4.75;;;;;;;;;;5007547;28;20050;-86
2022/01/22 13:25:22;;;;;;;25.52;5.30;;;;;;;;;;5026410;28;20060;-85
2022/01/22 13:28:00;;;;;;;19.08;4.40;;;;;;;;;;4994664;28;20085;-85
2022/01/22 13:30:30;;;;;;;23.23;5.15;;;;;;;;;;5006758;28;20037;-85
2022/01/22 13:33:02;;;;;;;21.17;5.30;;;;;;;;;;5021292;28;20085;-86
2022/01/22 13:48:56;;;;;;;16.17;5.30;;;;;;;;;;5009043;28;20603;-85
2022/01/22 13:51:23;;;;;;;24.40;6.63;;;;;;;;;;5013988;28;20050;-87
2022/01/22 13:53:49;;;;;;;25.33;6.63;;;;;;;;;;4990991;28;20037;-87
2022/01/22 13:56:17;;;;;;;21.70;6.82;;;;;;;;;;5025822;28;20124;-86
2022/01/22 13:58:43;;;;;;;15.63;6.63;;;;;;;;;;5030802;28;20472;-86
2022/01/22 14:01:41;;;;;;;20.90;6.40;;;;;;;;;;5053819;28;20045;-86
2022/01/22 14:04:07;;;;;;;18.58;5.25;;;;;;;;;;5057379;28;20075;-88
2022/01/22 14:06:33;;;;;;;18.73;4.55;;;;;;;;;;5044813;28;20274;-87
2022/01/22 14:09:12;;;;;;;34.75;5.55;;;;;;;;;;5049028;28;20462;-86
2022/01/22 14:11:38;;;;;;;17.15;3.95;;;;;;;;;;5052836;28;20053;-87
2022/01/22 14:14:05;;;;;;;17.60;3.38;;;;;;;;;;5042327;28;20072;-87
2022/01/22 14:16:32;;;;;;;24.13;3.45;;;;;;;;;;4994750;28;20037;-87
2022/01/22 14:18:59;;;;;;;12.95;3.75;;;;;;;;;;5039266;28;20053;-87
2022/01/22 14:21:26;;;;;;;14.02;3.65;;;;;;;;;;5015004;28;20045;-88
2022/01/22 14:23:52;;;;;;;16.17;3.28;;;;;;;;;;5005278;28;20449;-88
2022/01/22 14:26:28;;;;;;;15.68;3.17;;;;;;;;;;5026041;28;20041;-87
2022/01/22 14:28:55;;;;;;;13.68;2.83;;;;;;;;;;5041197;28;20045;-87
2022/01/22 14:31:27;;;;;;;22.52;4.70;;;;;;;;;;5031218;28;20095;-85
2022/01/22 14:33:54;;;;;;;13.25;3.25;;;;;;;;;;5026264;28;20067;-87
2022/01/22 14:36:22;;;;;;;14.02;2.40;;;;;;;;;;5041152;28;20049;-88
2022/01/22 14:38:57;;;;;;;10.65;2.55;;;;;;;;;;5009685;28;20029;-87
2022/01/22 14:46:53;;;;;;;13.65;3.90;;;;;;;;;;5022147;28;20130;-88
2022/01/22 14:49:27;;;;;;;19.80;3.40;;;;;;;;;;5024223;28;20041;-86
2022/01/22 14:51:54;;;;;;;21.80;3.17;;;;;;;;;;5027488;28;20050;-87
2022/01/22 14:54:21;;;;;;;12.65;2.88;;;;;;;;;;5044729;28;20040;-87
2022/01/22 14:56:47;;;;;;;18.05;2.83;;;;;;;;;;5044564;28;20045;-88
2022/01/22 14:59:13;;;;;;;19.98;3.22;;;;;;;;;;5019625;28;20525;-86
2022/01/22 15:01:39;;;;;;;26.55;3.15;;;;;;;;;;5025467;28;20049;-87
2022/01/22 15:04:05;;;;;;;19.42;3.22;;;;;;;;;;5044649;28;20120;-88
2022/01/22 15:06:31;;;;;;;17.38;3.13;;;;;;;;;;5045746;28;20056;-88
2022/01/22 15:08:57;;;;;;;21.52;3.20;;;;;;;;;;5040327;28;20136;-87
2022/01/22 15:11:23;;;;;;;14.27;2.63;;;;;;;;;;4998741;28;20034;-88
2022/01/22 15:13:49;;;;;;;15.27;3.92;;;;;;;;;;5008238;28;20513;-88
2022/01/22 15:16:20;;;;;;;15.00;2.72;;;;;;;;;;5026910;28;20041;-87
2022/01/22 15:18:51;;;;;;;12.32;2.80;;;;;;;;;;5020170;28;20093;-87
2022/01/22 15:21:17;;;;;;;19.33;3.03;;;;;;;;;;5024821;28;20037;-87
2022/01/22 15:23:44;;;;;;;19.85;3.10;;;;;;;;;;5036926;28;20899;-87
2022/01/22 15:26:10;;;;;;;18.48;3.88;;;;;;;;;;5043225;28;20072;-89
2022/01/22 15:28:43;;;;;;;12.55;3.33;;;;;;;;;;5016309;28;20568;-87
2022/01/22 15:31:26;;;;;;;17.63;3.40;;;;;;;;;;5027186;28;20047;-88
2022/01/22 15:33:55;;;;;;;15.38;3.13;;;;;;;;;;5031649;28;20497;-88
2022/01/22 15:36:21;;;;;;;13.32;2.78;;;;;;;;;;5014688;28;20046;-88
2022/01/22 15:38:48;;;;;;;14.45;3.17;;;;;;;;;;5024010;28;20108;-87
2022/01/22 15:41:14;;;;;;;12.85;2.83;;;;;;;;;;5015492;28;20041;-88
2022/01/22 15:43:42;;;;;;;9.25;2.90;;;;;;;;;;4998235;28;20041;-86
2022/01/22 15:46:08;;;;;;;9.90;2.88;;;;;;;;;;5048201;28;20045;-89
2022/01/22 15:48:34;;;;;;;17.83;3.40;;;;;;;;;;5019506;28;20069;-89
2022/01/22 15:51:00;;;;;;;19.17;2.78;;;;;;;;;;5028139;28;20908;-88
2022/01/22 15:53:32;;;;;;;12.80;2.38;;;;;;;;;;5030399;28;20408;-88
2022/01/22 15:55:58;;;;;;;10.27;2.90;;;;;;;;;;5011483;28;20053;-88
2022/01/22 15:58:25;;;;;;;7.90;2.20;;;;;;;;;;4997948;28;20485;-88
2022/01/22 16:00:51;;;;;;;10.18;2.53;;;;;;;;;;4978912;28;20049;-89
2022/01/22 16:03:18;;;;;;;13.02;2.90;;;;;;;;;;5014887;28;20033;-88
2022/01/22 16:05:47;;;;;;;10.10;2.58;;;;;;;;;;4983999;28;20051;-88
2022/01/22 16:08:13;;;;;;;11.30;2.40;;;;;;;;;;5030570;28;20076;-88
2022/01/22 16:10:54;;;;;;;13.35;3.05;;;;;;;;;;5056315;28;20862;-89
2022/01/22 16:13:20;;;;;;;17.17;2.95;;;;;;;;;;5044937;28;20065;-89
2022/01/22 16:15:46;;;;;;;9.60;3.30;;;;;;;;;;5018174;28;20029;-88
2022/01/22 16:18:12;;;;;;;15.10;2.65;;;;;;;;;;5052799;28;20108;-88
2022/01/22 16:20:48;;;;;;;15.05;3.33;;;;;;;;;;5034003;28;20048;-90
2022/01/22 16:23:17;;;;;;;17.80;3.70;;;;;;;;;;5026148;28;20432;-88
2022/01/22 16:25:44;;;;;;;24.50;4.97;;;;;;;;;;5001362;28;20503;-87
2022/01/22 16:28:10;;;;;;;12.77;2.42;;;;;;;;;;5037119;28;20047;-89
2022/01/22 16:30:36;;;;;;;15.70;3.47;;;;;;;;;;5044623;28;20049;-87
2022/01/22 16:33:02;;;;;;;17.92;3.90;;;;;;;;;;5027934;28;20049;-89
2022/01/22 16:35:28;;;;;;;18.30;3.55;;;;;;;;;;5028597;28;20091;-89
2022/01/22 16:37:54;;;;;;;10.48;2.65;;;;;;;;;;5030741;28;20045;-88
2022/01/22 16:40:24;;;;;;;15.00;3.33;;;;;;;;;;5026221;28;20078;-89
2022/01/22 16:43:04;;;;;;;16.85;3.65;;;;;;;;;;5007981;28;20075;-89